sensor_id;sensor_type;location;lat;lon;timestamp;P1;durP1;ratioP1;P2;durP2;ratioP2
19739;SDS011;10027;51.066;13.768;2022-11-20T00:01:27;18.67;;;6.43;;
19739;SDS011;10027;51.066;13.768;2022-11-20T00:03:55;11.90;;;5.50;;
19739;SDS011;10027;51.066;13.768;2022-11-20T00:06:23;14.87;;;6.17;;
19739;SDS011;10027;51.066;13.768;2022-11-20T00:08:51;14.77;;;6.23;;
19739;SDS011;10027;51.066;13.768;2022-11-20T00:11:21;11.63;;;5.87;;
19739;SDS011;10027;51.066;13.768;2022-11-20T00:13:49;14.80;;;6.17;;
19739;SDS011;10027;51.066;13.768;2022-11-20T00:16:18;17.87;;;6.43;;
19739;SDS011;10027;51.066;13.768;2022-11-20T00:18:45;12.53;;;6.23;;
19739;SDS011;10027;51.066;13.768;2022-11-20T00:21:13;18.57;;;6.07;;
19739;SDS011;10027;51.066;13.768;2022-11-20T00:23:41;14.00;;;6.30;;
19739;SDS011;10027;51.066;13.768;2022-11-20T00:26:09;17.90;;;7.03;;
19739;SDS011;10027;51.066;13.768;2022-11-20T00:28:37;15.80;;;6.83;;
19739;SDS011;10027;51.066;13.768;2022-11-20T00:31:04;13.97;;;6.80;;
19739;SDS011;10027;51.066;13.768;2022-11-20T00:33:32;21.90;;;7.17;;
19739;SDS011;10027;51.066;13.768;2022-11-20T00:36:03;21.37;;;7.90;;
19739;SDS011;10027;51.066;13.768;2022-11-20T00:38:30;16.27;;;7.67;;
19739;SDS011;10027;51.066;13.768;2022-11-20T00:40:58;19.17;;;6.77;;
19739;SDS011;10027;51.066;13.768;2022-11-20T00:43:26;13.27;;;6.47;;
19739;SDS011;10027;51.066;13.768;2022-11-20T00:45:57;15.37;;;6.93;;
19739;SDS011;10027;51.066;13.768;2022-11-20T00:48:25;15.53;;;6.13;;
19739;SDS011;10027;51.066;13.768;2022-11-20T00:50:52;16.23;;;6.60;;
19739;SDS011;10027;51.066;13.768;2022-11-20T00:53:20;18.83;;;7.20;;
19739;SDS011;10027;51.066;13.768;2022-11-20T00:56:00;13.00;;;6.73;;
19739;SDS011;10027;51.066;13.768;2022-11-20T00:58:29;20.77;;;7.80;;
19739;SDS011;10027;51.066;13.768;2022-11-20T01:01:17;16.63;;;6.50;;
19739;SDS011;10027;51.066;13.768;2022-11-20T01:03:45;15.27;;;6.57;;
19739;SDS011;10027;51.066;13.768;2022-11-20T01:06:16;15.73;;;6.50;;
19739;SDS011;10027;51.066;13.768;2022-11-20T01:08:44;14.67;;;6.30;;
19739;SDS011;10027;51.066;13.768;2022-11-20T01:11:12;17.93;;;6.53;;
19739;SDS011;10027;51.066;13.768;2022-11-20T01:13:40;16.80;;;7.23;;
19739;SDS011;10027;51.066;13.768;2022-11-20T01:18:34;19.93;;;7.93;;
19739;SDS011;10027;51.066;13.768;2022-11-20T01:21:05;23.57;;;7.53;;
19739;SDS011;10027;51.066;13.768;2022-11-20T01:23:33;18.80;;;7.23;;
19739;SDS011;10027;51.066;13.768;2022-11-20T01:26:01;14.70;;;6.57;;
19739;SDS011;10027;51.066;13.768;2022-11-20T01:28:28;19.87;;;6.57;;
19739;SDS011;10027;51.066;13.768;2022-11-20T01:30:56;15.23;;;6.70;;
19739;SDS011;10027;51.066;13.768;2022-11-20T01:33:23;14.47;;;6.50;;
19739;SDS011;10027;51.066;13.768;2022-11-20T01:35:50;17.37;;;6.53;;
19739;SDS011;10027;51.066;13.768;2022-11-20T01:38:17;17.23;;;7.33;;
19739;SDS011;10027;51.066;13.768;2022-11-20T01:40:53;20.57;;;7.10;;
19739;SDS011;10027;51.066;13.768;2022-11-20T01:43:20;16.20;;;6.30;;
19739;SDS011;10027;51.066;13.768;2022-11-20T01:48:35;12.83;;;6.20;;
19739;SDS011;10027;51.066;13.768;2022-11-20T01:51:04;14.70;;;6.63;;
19739;SDS011;10027;51.066;13.768;2022-11-20T01:53:32;20.80;;;6.57;;
19739;SDS011;10027;51.066;13.768;2022-11-20T01:56:00;14.93;;;6.17;;
19739;SDS011;10027;51.066;13.768;2022-11-20T01:58:32;11.73;;;6.10;;
19739;SDS011;10027;51.066;13.768;2022-11-20T02:01:00;18.77;;;7.00;;
19739;SDS011;10027;51.066;13.768;2022-11-20T02:03:27;18.67;;;6.53;;
19739;SDS011;10027;51.066;13.768;2022-11-20T02:08:34;18.03;;;6.80;;
19739;SDS011;10027;51.066;13.768;2022-11-20T02:11:02;13.60;;;6.80;;
19739;SDS011;10027;51.066;13.768;2022-11-20T02:13:29;16.10;;;7.03;;
19739;SDS011;10027;51.066;13.768;2022-11-20T02:16:25;17.60;;;6.57;;
19739;SDS011;10027;51.066;13.768;2022-11-20T02:18:53;21.20;;;6.30;;
19739;SDS011;10027;51.066;13.768;2022-11-20T02:24:10;12.50;;;5.37;;
19739;SDS011;10027;51.066;13.768;2022-11-20T02:29:37;15.30;;;6.60;;
19739;SDS011;10027;51.066;13.768;2022-11-20T02:32:06;14.93;;;6.90;;
19739;SDS011;10027;51.066;13.768;2022-11-20T02:34:44;17.37;;;6.33;;
19739;SDS011;10027;51.066;13.768;2022-11-20T02:37:11;17.97;;;6.23;;
19739;SDS011;10027;51.066;13.768;2022-11-20T02:39:38;15.33;;;6.00;;
19739;SDS011;10027;51.066;13.768;2022-11-20T02:42:06;16.33;;;6.30;;
19739;SDS011;10027;51.066;13.768;2022-11-20T02:44:33;16.80;;;6.03;;
19739;SDS011;10027;51.066;13.768;2022-11-20T02:47:00;20.13;;;6.60;;
19739;SDS011;10027;51.066;13.768;2022-11-20T02:49:27;16.57;;;6.20;;
19739;SDS011;10027;51.066;13.768;2022-11-20T02:51:54;15.67;;;6.70;;
19739;SDS011;10027;51.066;13.768;2022-11-20T02:54:21;15.53;;;6.77;;
19739;SDS011;10027;51.066;13.768;2022-11-20T02:56:48;16.43;;;6.27;;
19739;SDS011;10027;51.066;13.768;2022-11-20T02:59:15;20.87;;;6.40;;
19739;SDS011;10027;51.066;13.768;2022-11-20T03:01:43;13.90;;;6.83;;
19739;SDS011;10027;51.066;13.768;2022-11-20T03:04:10;17.27;;;6.67;;
19739;SDS011;10027;51.066;13.768;2022-11-20T03:06:37;16.90;;;6.20;;
19739;SDS011;10027;51.066;13.768;2022-11-20T03:09:04;16.87;;;5.50;;
19739;SDS011;10027;51.066;13.768;2022-11-20T03:11:31;14.93;;;6.80;;
19739;SDS011;10027;51.066;13.768;2022-11-20T03:14:01;15.27;;;6.20;;
19739;SDS011;10027;51.066;13.768;2022-11-20T03:16:28;12.90;;;6.07;;
19739;SDS011;10027;51.066;13.768;2022-11-20T03:18:55;15.37;;;6.57;;
19739;SDS011;10027;51.066;13.768;2022-11-20T03:21:22;17.43;;;6.03;;
19739;SDS011;10027;51.066;13.768;2022-11-20T03:23:49;16.67;;;6.20;;
19739;SDS011;10027;51.066;13.768;2022-11-20T03:26:17;22.33;;;7.57;;
19739;SDS011;10027;51.066;13.768;2022-11-20T03:28:48;17.20;;;6.00;;
19739;SDS011;10027;51.066;13.768;2022-11-20T03:31:17;15.63;;;6.53;;
19739;SDS011;10027;51.066;13.768;2022-11-20T03:33:44;16.47;;;6.53;;
19739;SDS011;10027;51.066;13.768;2022-11-20T03:36:12;15.93;;;6.30;;
19739;SDS011;10027;51.066;13.768;2022-11-20T03:38:39;16.97;;;6.60;;
19739;SDS011;10027;51.066;13.768;2022-11-20T03:41:08;17.20;;;7.00;;
19739;SDS011;10027;51.066;13.768;2022-11-20T03:43:35;16.33;;;6.60;;
19739;SDS011;10027;51.066;13.768;2022-11-20T03:46:02;15.13;;;6.13;;
19739;SDS011;10027;51.066;13.768;2022-11-20T03:48:30;15.77;;;6.47;;
19739;SDS011;10027;51.066;13.768;2022-11-20T03:51:16;18.33;;;6.73;;
19739;SDS011;10027;51.066;13.768;2022-11-20T03:53:44;15.63;;;6.30;;
19739;SDS011;10027;51.066;13.768;2022-11-20T03:56:11;12.47;;;5.93;;
19739;SDS011;10027;51.066;13.768;2022-11-20T03:58:39;13.03;;;6.20;;
19739;SDS011;10027;51.066;13.768;2022-11-20T04:01:07;20.80;;;6.83;;
19739;SDS011;10027;51.066;13.768;2022-11-20T04:03:35;16.27;;;6.10;;
19739;SDS011;10027;51.066;13.768;2022-11-20T04:06:10;12.53;;;5.83;;
19739;SDS011;10027;51.066;13.768;2022-11-20T04:08:38;14.83;;;5.87;;
19739;SDS011;10027;51.066;13.768;2022-11-20T04:11:12;16.67;;;5.87;;
19739;SDS011;10027;51.066;13.768;2022-11-20T04:13:39;21.73;;;5.67;;
19739;SDS011;10027;51.066;13.768;2022-11-20T04:16:07;15.87;;;5.87;;
19739;SDS011;10027;51.066;13.768;2022-11-20T04:18:35;14.03;;;5.97;;
19739;SDS011;10027;51.066;13.768;2022-11-20T04:21:03;15.80;;;5.93;;
19739;SDS011;10027;51.066;13.768;2022-11-20T04:23:30;16.00;;;5.57;;
19739;SDS011;10027;51.066;13.768;2022-11-20T04:26:01;24.63;;;5.50;;
19739;SDS011;10027;51.066;13.768;2022-11-20T04:28:28;12.90;;;5.93;;
19739;SDS011;10027;51.066;13.768;2022-11-20T04:31:01;16.30;;;5.50;;
19739;SDS011;10027;51.066;13.768;2022-11-20T04:33:28;16.20;;;5.50;;
19739;SDS011;10027;51.066;13.768;2022-11-20T04:36:00;11.97;;;4.80;;
19739;SDS011;10027;51.066;13.768;2022-11-20T04:38:28;15.67;;;6.50;;
19739;SDS011;10027;51.066;13.768;2022-11-20T04:41:01;12.83;;;5.87;;
19739;SDS011;10027;51.066;13.768;2022-11-20T04:43:29;15.13;;;5.40;;
19739;SDS011;10027;51.066;13.768;2022-11-20T04:45:57;12.93;;;5.13;;
19739;SDS011;10027;51.066;13.768;2022-11-20T04:48:25;12.30;;;5.70;;
19739;SDS011;10027;51.066;13.768;2022-11-20T04:50:52;14.83;;;6.07;;
19739;SDS011;10027;51.066;13.768;2022-11-20T04:53:20;13.43;;;5.80;;
19739;SDS011;10027;51.066;13.768;2022-11-20T04:55:47;11.93;;;5.80;;
19739;SDS011;10027;51.066;13.768;2022-11-20T04:58:14;14.00;;;5.50;;
19739;SDS011;10027;51.066;13.768;2022-11-20T05:00:42;12.43;;;5.23;;
19739;SDS011;10027;51.066;13.768;2022-11-20T05:03:09;15.60;;;5.87;;
19739;SDS011;10027;51.066;13.768;2022-11-20T05:05:36;12.97;;;5.53;;
19739;SDS011;10027;51.066;13.768;2022-11-20T05:08:03;12.60;;;5.50;;
19739;SDS011;10027;51.066;13.768;2022-11-20T05:10:30;14.40;;;5.63;;
19739;SDS011;10027;51.066;13.768;2022-11-20T05:12:57;12.63;;;5.23;;
19739;SDS011;10027;51.066;13.768;2022-11-20T05:15:24;18.00;;;5.23;;
19739;SDS011;10027;51.066;13.768;2022-11-20T05:17:52;12.80;;;5.13;;
19739;SDS011;10027;51.066;13.768;2022-11-20T05:20:19;10.27;;;4.73;;
19739;SDS011;10027;51.066;13.768;2022-11-20T05:22:46;13.70;;;5.77;;
19739;SDS011;10027;51.066;13.768;2022-11-20T05:25:13;11.70;;;5.03;;
19739;SDS011;10027;51.066;13.768;2022-11-20T05:27:40;13.77;;;5.47;;
19739;SDS011;10027;51.066;13.768;2022-11-20T05:30:07;12.03;;;5.17;;
19739;SDS011;10027;51.066;13.768;2022-11-20T05:32:34;13.70;;;5.37;;
19739;SDS011;10027;51.066;13.768;2022-11-20T05:35:02;12.83;;;5.47;;
19739;SDS011;10027;51.066;13.768;2022-11-20T05:37:29;13.20;;;5.17;;
19739;SDS011;10027;51.066;13.768;2022-11-20T05:39:56;12.10;;;5.63;;
19739;SDS011;10027;51.066;13.768;2022-11-20T05:42:23;12.07;;;5.20;;
19739;SDS011;10027;51.066;13.768;2022-11-20T05:44:56;13.07;;;5.90;;
19739;SDS011;10027;51.066;13.768;2022-11-20T05:47:24;14.33;;;5.80;;
19739;SDS011;10027;51.066;13.768;2022-11-20T05:49:51;15.17;;;5.57;;
19739;SDS011;10027;51.066;13.768;2022-11-20T05:52:18;14.23;;;5.70;;
19739;SDS011;10027;51.066;13.768;2022-11-20T05:54:45;12.67;;;5.37;;
19739;SDS011;10027;51.066;13.768;2022-11-20T05:57:12;12.70;;;6.40;;
19739;SDS011;10027;51.066;13.768;2022-11-20T05:59:39;16.97;;;6.30;;
19739;SDS011;10027;51.066;13.768;2022-11-20T06:02:06;15.33;;;6.30;;
19739;SDS011;10027;51.066;13.768;2022-11-20T06:04:34;11.17;;;5.30;;
19739;SDS011;10027;51.066;13.768;2022-11-20T06:07:01;15.97;;;5.77;;
19739;SDS011;10027;51.066;13.768;2022-11-20T06:09:28;13.37;;;5.40;;
19739;SDS011;10027;51.066;13.768;2022-11-20T06:11:55;15.80;;;5.90;;
19739;SDS011;10027;51.066;13.768;2022-11-20T06:14:22;16.73;;;6.03;;
19739;SDS011;10027;51.066;13.768;2022-11-20T06:16:49;16.07;;;6.43;;
19739;SDS011;10027;51.066;13.768;2022-11-20T06:19:17;13.40;;;5.83;;
19739;SDS011;10027;51.066;13.768;2022-11-20T06:21:44;13.27;;;6.47;;
19739;SDS011;10027;51.066;13.768;2022-11-20T06:24:11;15.43;;;6.10;;
19739;SDS011;10027;51.066;13.768;2022-11-20T06:26:38;12.77;;;5.30;;
19739;SDS011;10027;51.066;13.768;2022-11-20T06:29:05;16.87;;;6.37;;
19739;SDS011;10027;51.066;13.768;2022-11-20T06:31:32;13.83;;;6.10;;
19739;SDS011;10027;51.066;13.768;2022-11-20T06:34:04;12.90;;;5.50;;
19739;SDS011;10027;51.066;13.768;2022-11-20T06:36:32;13.47;;;5.67;;
19739;SDS011;10027;51.066;13.768;2022-11-20T06:38:59;16.87;;;5.77;;
19739;SDS011;10027;51.066;13.768;2022-11-20T06:41:27;12.63;;;5.70;;
19739;SDS011;10027;51.066;13.768;2022-11-20T06:43:54;12.83;;;5.87;;
19739;SDS011;10027;51.066;13.768;2022-11-20T06:46:21;12.70;;;5.87;;
19739;SDS011;10027;51.066;13.768;2022-11-20T06:48:48;17.17;;;6.33;;
19739;SDS011;10027;51.066;13.768;2022-11-20T06:51:16;12.10;;;5.40;;
19739;SDS011;10027;51.066;13.768;2022-11-20T06:53:43;12.80;;;6.00;;
19739;SDS011;10027;51.066;13.768;2022-11-20T06:56:10;13.03;;;5.20;;
19739;SDS011;10027;51.066;13.768;2022-11-20T06:58:37;12.17;;;5.70;;
19739;SDS011;10027;51.066;13.768;2022-11-20T07:01:05;15.23;;;6.43;;
19739;SDS011;10027;51.066;13.768;2022-11-20T07:03:33;17.77;;;6.23;;
19739;SDS011;10027;51.066;13.768;2022-11-20T07:06:00;13.10;;;5.90;;
19739;SDS011;10027;51.066;13.768;2022-11-20T07:08:28;14.70;;;5.93;;
19739;SDS011;10027;51.066;13.768;2022-11-20T07:10:59;14.47;;;6.30;;
19739;SDS011;10027;51.066;13.768;2022-11-20T07:13:26;14.70;;;5.57;;
19739;SDS011;10027;51.066;13.768;2022-11-20T07:15:54;15.10;;;6.77;;
19739;SDS011;10027;51.066;13.768;2022-11-20T07:18:21;18.97;;;7.33;;
19739;SDS011;10027;51.066;13.768;2022-11-20T07:20:48;11.33;;;5.73;;
19739;SDS011;10027;51.066;13.768;2022-11-20T07:23:15;12.70;;;5.20;;
19739;SDS011;10027;51.066;13.768;2022-11-20T07:25:42;15.57;;;6.23;;
19739;SDS011;10027;51.066;13.768;2022-11-20T07:28:09;18.40;;;5.80;;
19739;SDS011;10027;51.066;13.768;2022-11-20T07:30:36;18.10;;;6.20;;
19739;SDS011;10027;51.066;13.768;2022-11-20T07:33:04;13.80;;;5.87;;
19739;SDS011;10027;51.066;13.768;2022-11-20T07:35:31;20.77;;;6.40;;
19739;SDS011;10027;51.066;13.768;2022-11-20T07:37:58;17.27;;;5.97;;
19739;SDS011;10027;51.066;13.768;2022-11-20T07:40:25;16.07;;;6.67;;
19739;SDS011;10027;51.066;13.768;2022-11-20T07:42:54;13.30;;;6.20;;
19739;SDS011;10027;51.066;13.768;2022-11-20T07:45:23;13.17;;;5.57;;
19739;SDS011;10027;51.066;13.768;2022-11-20T07:47:50;15.00;;;6.40;;
19739;SDS011;10027;51.066;13.768;2022-11-20T07:50:18;15.00;;;6.03;;
19739;SDS011;10027;51.066;13.768;2022-11-20T07:52:45;12.20;;;5.93;;
19739;SDS011;10027;51.066;13.768;2022-11-20T07:55:12;21.67;;;6.60;;
19739;SDS011;10027;51.066;13.768;2022-11-20T07:57:39;17.73;;;6.17;;
19739;SDS011;10027;51.066;13.768;2022-11-20T08:00:07;16.10;;;6.43;;
19739;SDS011;10027;51.066;13.768;2022-11-20T08:02:38;22.00;;;6.70;;
19739;SDS011;10027;51.066;13.768;2022-11-20T08:05:06;15.47;;;6.20;;
19739;SDS011;10027;51.066;13.768;2022-11-20T08:07:37;13.90;;;6.43;;
19739;SDS011;10027;51.066;13.768;2022-11-20T08:10:05;15.67;;;7.20;;
19739;SDS011;10027;51.066;13.768;2022-11-20T08:12:32;16.20;;;6.53;;
19739;SDS011;10027;51.066;13.768;2022-11-20T08:15:18;16.73;;;6.50;;
19739;SDS011;10027;51.066;13.768;2022-11-20T08:17:45;15.23;;;5.90;;
19739;SDS011;10027;51.066;13.768;2022-11-20T08:20:33;19.63;;;6.50;;
19739;SDS011;10027;51.066;13.768;2022-11-20T08:23:01;19.77;;;6.87;;
19739;SDS011;10027;51.066;13.768;2022-11-20T08:25:28;13.33;;;6.37;;
19739;SDS011;10027;51.066;13.768;2022-11-20T08:27:57;19.47;;;7.53;;
19739;SDS011;10027;51.066;13.768;2022-11-20T08:30:26;17.03;;;6.73;;
19739;SDS011;10027;51.066;13.768;2022-11-20T08:32:53;18.03;;;6.50;;
19739;SDS011;10027;51.066;13.768;2022-11-20T08:35:21;19.07;;;7.00;;
19739;SDS011;10027;51.066;13.768;2022-11-20T08:37:48;20.33;;;7.37;;
19739;SDS011;10027;51.066;13.768;2022-11-20T08:40:15;21.97;;;7.13;;
19739;SDS011;10027;51.066;13.768;2022-11-20T08:42:48;15.67;;;6.80;;
19739;SDS011;10027;51.066;13.768;2022-11-20T08:45:16;19.33;;;6.60;;
19739;SDS011;10027;51.066;13.768;2022-11-20T08:47:43;16.77;;;7.20;;
19739;SDS011;10027;51.066;13.768;2022-11-20T08:50:11;18.13;;;7.33;;
19739;SDS011;10027;51.066;13.768;2022-11-20T08:52:39;18.30;;;7.00;;
19739;SDS011;10027;51.066;13.768;2022-11-20T08:55:06;19.13;;;7.13;;
19739;SDS011;10027;51.066;13.768;2022-11-20T08:57:34;22.93;;;8.10;;
19739;SDS011;10027;51.066;13.768;2022-11-20T09:00:02;18.53;;;7.40;;
19739;SDS011;10027;51.066;13.768;2022-11-20T09:02:32;24.20;;;8.03;;
19739;SDS011;10027;51.066;13.768;2022-11-20T09:04:59;20.07;;;7.60;;
19739;SDS011;10027;51.066;13.768;2022-11-20T09:07:28;17.50;;;7.93;;
19739;SDS011;10027;51.066;13.768;2022-11-20T09:09:59;17.30;;;7.90;;
19739;SDS011;10027;51.066;13.768;2022-11-20T09:12:48;18.97;;;8.00;;
19739;SDS011;10027;51.066;13.768;2022-11-20T09:15:15;28.37;;;8.10;;
19739;SDS011;10027;51.066;13.768;2022-11-20T09:17:42;23.70;;;8.40;;
19739;SDS011;10027;51.066;13.768;2022-11-20T09:20:09;18.07;;;7.37;;
19739;SDS011;10027;51.066;13.768;2022-11-20T09:22:39;17.93;;;7.53;;
19739;SDS011;10027;51.066;13.768;2022-11-20T09:25:06;17.43;;;6.90;;
19739;SDS011;10027;51.066;13.768;2022-11-20T09:27:34;19.00;;;7.50;;
19739;SDS011;10027;51.066;13.768;2022-11-20T09:30:02;15.53;;;7.27;;
19739;SDS011;10027;51.066;13.768;2022-11-20T09:32:29;18.03;;;6.13;;
19739;SDS011;10027;51.066;13.768;2022-11-20T09:34:56;24.23;;;7.87;;
19739;SDS011;10027;51.066;13.768;2022-11-20T09:37:23;16.47;;;6.70;;
19739;SDS011;10027;51.066;13.768;2022-11-20T09:39:50;16.30;;;6.57;;
19739;SDS011;10027;51.066;13.768;2022-11-20T09:45:20;14.20;;;6.03;;
19739;SDS011;10027;51.066;13.768;2022-11-20T09:50:30;15.10;;;6.40;;
19739;SDS011;10027;51.066;13.768;2022-11-20T09:55:29;14.33;;;6.37;;
19739;SDS011;10027;51.066;13.768;2022-11-20T09:57:56;12.90;;;5.30;;
19739;SDS011;10027;51.066;13.768;2022-11-20T10:00:24;15.43;;;6.63;;
19739;SDS011;10027;51.066;13.768;2022-11-20T10:02:54;14.60;;;5.97;;
19739;SDS011;10027;51.066;13.768;2022-11-20T10:05:27;11.50;;;5.07;;
19739;SDS011;10027;51.066;13.768;2022-11-20T10:08:07;12.23;;;5.80;;
19739;SDS011;10027;51.066;13.768;2022-11-20T10:10:56;11.90;;;5.53;;
19739;SDS011;10027;51.066;13.768;2022-11-20T10:16:03;13.77;;;6.20;;
19739;SDS011;10027;51.066;13.768;2022-11-20T10:18:39;20.50;;;6.73;;
19739;SDS011;10027;51.066;13.768;2022-11-20T10:26:22;13.07;;;5.07;;
19739;SDS011;10027;51.066;13.768;2022-11-20T10:31:39;11.90;;;5.20;;
19739;SDS011;10027;51.066;13.768;2022-11-20T10:34:16;10.97;;;5.17;;
19739;SDS011;10027;51.066;13.768;2022-11-20T10:36:55;14.97;;;5.73;;
19739;SDS011;10027;51.066;13.768;2022-11-20T10:40:11;11.33;;;4.73;;
19739;SDS011;10027;51.066;13.768;2022-11-20T10:42:16;11.67;;;5.37;;
19739;SDS011;10027;51.066;13.768;2022-11-20T10:44:47;12.13;;;4.73;;
19739;SDS011;10027;51.066;13.768;2022-11-20T10:47:31;11.27;;;5.07;;
19739;SDS011;10027;51.066;13.768;2022-11-20T10:50:01;11.70;;;5.00;;
19739;SDS011;10027;51.066;13.768;2022-11-20T10:52:37;9.27;;;4.27;;
19739;SDS011;10027;51.066;13.768;2022-11-20T10:55:11;9.80;;;4.70;;
19739;SDS011;10027;51.066;13.768;2022-11-20T11:00:21;10.67;;;5.13;;
19739;SDS011;10027;51.066;13.768;2022-11-20T11:02:49;10.40;;;4.97;;
19739;SDS011;10027;51.066;13.768;2022-11-20T11:05:25;9.40;;;4.53;;
19739;SDS011;10027;51.066;13.768;2022-11-20T11:07:55;10.93;;;5.00;;
19739;SDS011;10027;51.066;13.768;2022-11-20T11:13:04;8.83;;;4.73;;
19739;SDS011;10027;51.066;13.768;2022-11-20T11:15:38;8.30;;;4.27;;
19739;SDS011;10027;51.066;13.768;2022-11-20T11:18:09;11.67;;;5.07;;
19739;SDS011;10027;51.066;13.768;2022-11-20T11:20:37;11.43;;;4.93;;
19739;SDS011;10027;51.066;13.768;2022-11-20T11:23:04;10.53;;;4.70;;
19739;SDS011;10027;51.066;13.768;2022-11-20T11:25:32;11.63;;;5.10;;
19739;SDS011;10027;51.066;13.768;2022-11-20T11:28:19;10.10;;;4.60;;
19739;SDS011;10027;51.066;13.768;2022-11-20T11:30:47;9.47;;;4.90;;
19739;SDS011;10027;51.066;13.768;2022-11-20T11:33:24;9.10;;;4.30;;
19739;SDS011;10027;51.066;13.768;2022-11-20T11:38:22;11.07;;;4.57;;
19739;SDS011;10027;51.066;13.768;2022-11-20T11:40:52;7.23;;;4.03;;
19739;SDS011;10027;51.066;13.768;2022-11-20T11:43:21;7.77;;;4.07;;
19739;SDS011;10027;51.066;13.768;2022-11-20T11:46:14;8.73;;;3.57;;
19739;SDS011;10027;51.066;13.768;2022-11-20T11:48:54;6.63;;;3.40;;
19739;SDS011;10027;51.066;13.768;2022-11-20T11:51:21;7.73;;;3.53;;
19739;SDS011;10027;51.066;13.768;2022-11-20T11:53:49;7.47;;;3.80;;
19739;SDS011;10027;51.066;13.768;2022-11-20T11:56:16;12.47;;;3.70;;
19739;SDS011;10027;51.066;13.768;2022-11-20T11:58:44;6.43;;;3.40;;
19739;SDS011;10027;51.066;13.768;2022-11-20T12:04:02;7.43;;;3.53;;
19739;SDS011;10027;51.066;13.768;2022-11-20T12:06:31;10.07;;;3.77;;
19739;SDS011;10027;51.066;13.768;2022-11-20T12:09:02;7.23;;;3.60;;
19739;SDS011;10027;51.066;13.768;2022-11-20T12:14:04;7.33;;;3.53;;
19739;SDS011;10027;51.066;13.768;2022-11-20T12:16:36;7.43;;;3.37;;
19739;SDS011;10027;51.066;13.768;2022-11-20T12:19:08;8.00;;;3.80;;
19739;SDS011;10027;51.066;13.768;2022-11-20T12:29:16;7.67;;;3.90;;
19739;SDS011;10027;51.066;13.768;2022-11-20T12:41:43;6.87;;;3.47;;
19739;SDS011;10027;51.066;13.768;2022-11-20T12:48:00;6.83;;;3.37;;
19739;SDS011;10027;51.066;13.768;2022-11-20T12:59:06;6.63;;;3.20;;
19739;SDS011;10027;51.066;13.768;2022-11-20T13:06:51;5.67;;;3.07;;
19739;SDS011;10027;51.066;13.768;2022-11-20T13:09:19;7.63;;;3.30;;
19739;SDS011;10027;51.066;13.768;2022-11-20T13:14:37;5.27;;;3.10;;
19739;SDS011;10027;51.066;13.768;2022-11-20T13:17:09;5.97;;;3.23;;
19739;SDS011;10027;51.066;13.768;2022-11-20T13:19:38;6.83;;;3.07;;
19739;SDS011;10027;51.066;13.768;2022-11-20T13:22:07;7.67;;;3.17;;
19739;SDS011;10027;51.066;13.768;2022-11-20T13:24:34;8.57;;;3.43;;
19739;SDS011;10027;51.066;13.768;2022-11-20T13:29:29;6.27;;;3.33;;
19739;SDS011;10027;51.066;13.768;2022-11-20T13:34:38;9.73;;;2.80;;
19739;SDS011;10027;51.066;13.768;2022-11-20T13:37:23;6.47;;;2.90;;
19739;SDS011;10027;51.066;13.768;2022-11-20T13:39:51;6.60;;;2.93;;
19739;SDS011;10027;51.066;13.768;2022-11-20T13:44:50;6.63;;;2.93;;
19739;SDS011;10027;51.066;13.768;2022-11-20T13:47:25;4.87;;;2.73;;
19739;SDS011;10027;51.066;13.768;2022-11-20T13:49:53;4.77;;;2.67;;
19739;SDS011;10027;51.066;13.768;2022-11-20T13:52:31;6.10;;;3.20;;
19739;SDS011;10027;51.066;13.768;2022-11-20T14:00:09;5.43;;;2.53;;
19739;SDS011;10027;51.066;13.768;2022-11-20T14:02:37;6.37;;;3.37;;
19739;SDS011;10027;51.066;13.768;2022-11-20T14:05:05;11.50;;;5.13;;
19739;SDS011;10027;51.066;13.768;2022-11-20T14:07:35;4.83;;;2.93;;
19739;SDS011;10027;51.066;13.768;2022-11-20T14:10:04;6.13;;;3.00;;
19739;SDS011;10027;51.066;13.768;2022-11-20T14:12:32;4.87;;;3.23;;
19739;SDS011;10027;51.066;13.768;2022-11-20T14:15:00;6.03;;;3.10;;
19739;SDS011;10027;51.066;13.768;2022-11-20T14:17:33;5.40;;;3.00;;
19739;SDS011;10027;51.066;13.768;2022-11-20T14:20:02;6.23;;;3.30;;
19739;SDS011;10027;51.066;13.768;2022-11-20T14:22:30;7.40;;;3.50;;
19739;SDS011;10027;51.066;13.768;2022-11-20T14:25:03;7.37;;;3.70;;
19739;SDS011;10027;51.066;13.768;2022-11-20T14:27:32;6.83;;;3.30;;
19739;SDS011;10027;51.066;13.768;2022-11-20T14:30:01;10.10;;;3.77;;
19739;SDS011;10027;51.066;13.768;2022-11-20T14:32:29;7.03;;;3.67;;
19739;SDS011;10027;51.066;13.768;2022-11-20T14:34:59;6.70;;;3.73;;
19739;SDS011;10027;51.066;13.768;2022-11-20T14:37:28;9.57;;;4.27;;
19739;SDS011;10027;51.066;13.768;2022-11-20T14:39:57;10.93;;;4.40;;
19739;SDS011;10027;51.066;13.768;2022-11-20T14:42:25;9.53;;;4.27;;
19739;SDS011;10027;51.066;13.768;2022-11-20T14:44:54;7.23;;;3.87;;
19739;SDS011;10027;51.066;13.768;2022-11-20T14:47:22;7.00;;;4.10;;
19739;SDS011;10027;51.066;13.768;2022-11-20T14:49:50;8.80;;;4.47;;
19739;SDS011;10027;51.066;13.768;2022-11-20T14:52:22;10.17;;;3.90;;
19739;SDS011;10027;51.066;13.768;2022-11-20T14:54:50;8.47;;;3.77;;
19739;SDS011;10027;51.066;13.768;2022-11-20T14:59:48;7.47;;;3.70;;
19739;SDS011;10027;51.066;13.768;2022-11-20T15:02:15;8.03;;;4.30;;
19739;SDS011;10027;51.066;13.768;2022-11-20T15:07:22;10.63;;;4.77;;
19739;SDS011;10027;51.066;13.768;2022-11-20T15:12:55;8.13;;;4.40;;
19739;SDS011;10027;51.066;13.768;2022-11-20T15:15:33;7.60;;;4.10;;
19739;SDS011;10027;51.066;13.768;2022-11-20T15:18:02;9.23;;;4.50;;
19739;SDS011;10027;51.066;13.768;2022-11-20T15:20:33;16.10;;;4.63;;
19739;SDS011;10027;51.066;13.768;2022-11-20T15:23:00;8.83;;;4.17;;
19739;SDS011;10027;51.066;13.768;2022-11-20T15:25:27;8.33;;;4.13;;
19739;SDS011;10027;51.066;13.768;2022-11-20T15:27:55;10.30;;;4.83;;
19739;SDS011;10027;51.066;13.768;2022-11-20T15:30:23;8.63;;;3.90;;
19739;SDS011;10027;51.066;13.768;2022-11-20T15:32:50;7.43;;;3.90;;
19739;SDS011;10027;51.066;13.768;2022-11-20T15:35:17;10.07;;;4.07;;
19739;SDS011;10027;51.066;13.768;2022-11-20T15:37:44;9.10;;;4.77;;
19739;SDS011;10027;51.066;13.768;2022-11-20T15:40:11;9.00;;;4.27;;
19739;SDS011;10027;51.066;13.768;2022-11-20T15:42:39;10.57;;;4.57;;
19739;SDS011;10027;51.066;13.768;2022-11-20T15:45:26;14.17;;;5.40;;
19739;SDS011;10027;51.066;13.768;2022-11-20T15:47:55;20.03;;;7.23;;
19739;SDS011;10027;51.066;13.768;2022-11-20T15:50:22;18.57;;;7.20;;
19739;SDS011;10027;51.066;13.768;2022-11-20T15:52:52;11.00;;;5.63;;
19739;SDS011;10027;51.066;13.768;2022-11-20T15:55:19;12.37;;;5.40;;
19739;SDS011;10027;51.066;13.768;2022-11-20T15:57:46;9.77;;;4.90;;
19739;SDS011;10027;51.066;13.768;2022-11-20T16:00:14;14.30;;;6.90;;
19739;SDS011;10027;51.066;13.768;2022-11-20T16:02:48;14.07;;;6.30;;
19739;SDS011;10027;51.066;13.768;2022-11-20T16:05:15;13.43;;;6.37;;
19739;SDS011;10027;51.066;13.768;2022-11-20T16:07:43;13.47;;;6.97;;
19739;SDS011;10027;51.066;13.768;2022-11-20T16:10:11;12.93;;;6.63;;
19739;SDS011;10027;51.066;13.768;2022-11-20T16:12:38;11.20;;;5.50;;
19739;SDS011;10027;51.066;13.768;2022-11-20T16:15:24;10.50;;;5.10;;
19739;SDS011;10027;51.066;13.768;2022-11-20T16:18:10;10.77;;;4.90;;
19739;SDS011;10027;51.066;13.768;2022-11-20T16:20:37;9.63;;;4.97;;